sensor_id;sensor_type;location;lat;lon;timestamp;temperature;humidity
12446;DHT22;6287;50.984;7.022;2023-04-03T00:00:43;2.90;99.90
12446;DHT22;6287;50.984;7.022;2023-04-03T00:03:11;2.80;99.90
12446;DHT22;6287;50.984;7.022;2023-04-03T00:05:41;2.80;99.90
12446;DHT22;6287;50.984;7.022;2023-04-03T00:08:07;2.70;99.90
12446;DHT22;6287;50.984;7.022;2023-04-03T00:10:40;2.70;99.90
12446;DHT22;6287;50.984;7.022;2023-04-03T00:13:06;2.60;99.90
12446;DHT22;6287;50.984;7.022;2023-04-03T00:15:35;2.50;99.90
12446;DHT22;6287;50.984;7.022;2023-04-03T00:18:00;2.50;99.90
12446;DHT22;6287;50.984;7.022;2023-04-03T00:22:53;2.40;99.90
12446;DHT22;6287;50.984;7.022;2023-04-03T00:25:21;2.40;99.90
12446;DHT22;6287;50.984;7.022;2023-04-03T00:27:49;2.30;99.90
12446;DHT22;6287;50.984;7.022;2023-04-03T00:30:18;2.20;99.90
12446;DHT22;6287;50.984;7.022;2023-04-03T00:32:44;2.20;99.90
12446;DHT22;6287;50.984;7.022;2023-04-03T00:35:10;2.20;99.90
12446;DHT22;6287;50.984;7.022;2023-04-03T00:37:36;2.20;99.90
12446;DHT22;6287;50.984;7.022;2023-04-03T00:40:04;2.20;99.90
12446;DHT22;6287;50.984;7.022;2023-04-03T00:42:36;2.10;99.90
12446;DHT22;6287;50.984;7.022;2023-04-03T00:47:31;2.10;99.90
12446;DHT22;6287;50.984;7.022;2023-04-03T00:52:28;2.10;99.90
12446;DHT22;6287;50.984;7.022;2023-04-03T00:54:58;2.10;99.90
12446;DHT22;6287;50.984;7.022;2023-04-03T00:57:26;2.00;99.90
12446;DHT22;6287;50.984;7.022;2023-04-03T00:59:55;2.00;99.90
12446;DHT22;6287;50.984;7.022;2023-04-03T01:02:22;2.00;99.90
12446;DHT22;6287;50.984;7.022;2023-04-03T01:04:47;1.90;99.90
12446;DHT22;6287;50.984;7.022;2023-04-03T01:09:45;1.80;99.90
12446;DHT22;6287;50.984;7.022;2023-04-03T01:15:15;1.70;99.90
12446;DHT22;6287;50.984;7.022;2023-04-03T01:28:07;1.70;99.90
12446;DHT22;6287;50.984;7.022;2023-04-03T01:30:39;1.60;99.90
12446;DHT22;6287;50.984;7.022;2023-04-03T01:33:09;1.70;99.90
12446;DHT22;6287;50.984;7.022;2023-04-03T01:38:08;1.60;99.90
12446;DHT22;6287;50.984;7.022;2023-04-03T01:40:33;1.60;99.90
12446;DHT22;6287;50.984;7.022;2023-04-03T01:42:59;1.60;99.90
12446;DHT22;6287;50.984;7.022;2023-04-03T01:45:24;1.50;99.90
12446;DHT22;6287;50.984;7.022;2023-04-03T01:47:50;1.50;99.90
12446;DHT22;6287;50.984;7.022;2023-04-03T01:50:16;1.40;99.90
12446;DHT22;6287;50.984;7.022;2023-04-03T01:52:41;1.40;99.90
12446;DHT22;6287;50.984;7.022;2023-04-03T01:55:07;1.40;99.90
12446;DHT22;6287;50.984;7.022;2023-04-03T01:57:33;1.40;99.90
12446;DHT22;6287;50.984;7.022;2023-04-03T02:00:03;1.40;99.90
12446;DHT22;6287;50.984;7.022;2023-04-03T02:02:31;1.40;99.90
12446;DHT22;6287;50.984;7.022;2023-04-03T02:04:57;1.40;99.90
12446;DHT22;6287;50.984;7.022;2023-04-03T02:07:25;1.30;99.90
12446;DHT22;6287;50.984;7.022;2023-04-03T02:09:50;1.30;99.90
12446;DHT22;6287;50.984;7.022;2023-04-03T02:12:16;1.30;99.90
12446;DHT22;6287;50.984;7.022;2023-04-03T02:14:47;1.30;99.90
12446;DHT22;6287;50.984;7.022;2023-04-03T02:17:17;1.20;99.90
12446;DHT22;6287;50.984;7.022;2023-04-03T02:19:47;1.20;99.90
12446;DHT22;6287;50.984;7.022;2023-04-03T02:24:41;1.10;99.90
12446;DHT22;6287;50.984;7.022;2023-04-03T02:27:10;1.10;99.90
12446;DHT22;6287;50.984;7.022;2023-04-03T02:29:35;1.00;99.90
12446;DHT22;6287;50.984;7.022;2023-04-03T02:32:04;1.00;99.90
12446;DHT22;6287;50.984;7.022;2023-04-03T02:34:30;1.00;99.90
12446;DHT22;6287;50.984;7.022;2023-04-03T02:36:55;0.90;99.90
12446;DHT22;6287;50.984;7.022;2023-04-03T02:39:25;0.90;99.90
12446;DHT22;6287;50.984;7.022;2023-04-03T02:41:51;0.80;99.90
12446;DHT22;6287;50.984;7.022;2023-04-03T02:44:17;0.80;99.90
12446;DHT22;6287;50.984;7.022;2023-04-03T02:46:43;0.80;99.90
12446;DHT22;6287;50.984;7.022;2023-04-03T02:49:10;0.70;99.90
12446;DHT22;6287;50.984;7.022;2023-04-03T02:51:36;0.70;99.90
12446;DHT22;6287;50.984;7.022;2023-04-03T02:54:07;0.80;99.90
12446;DHT22;6287;50.984;7.022;2023-04-03T02:56:32;0.70;99.90
12446;DHT22;6287;50.984;7.022;2023-04-03T02:58:58;0.70;99.90
12446;DHT22;6287;50.984;7.022;2023-04-03T03:01:24;0.60;99.90
12446;DHT22;6287;50.984;7.022;2023-04-03T03:03:50;0.60;99.90
12446;DHT22;6287;50.984;7.022;2023-04-03T03:06:16;3.70;99.90
12446;DHT22;6287;50.984;7.022;2023-04-03T03:08:42;0.60;99.90
12446;DHT22;6287;50.984;7.022;2023-04-03T03:13:34;0.50;99.90
12446;DHT22;6287;50.984;7.022;2023-04-03T03:16:02;0.40;99.90
12446;DHT22;6287;50.984;7.022;2023-04-03T03:18:28;0.50;99.90
12446;DHT22;6287;50.984;7.022;2023-04-03T03:20:57;0.40;99.90
12446;DHT22;6287;50.984;7.022;2023-04-03T03:23:27;0.40;99.90
12446;DHT22;6287;50.984;7.022;2023-04-03T03:26:02;0.50;99.90
12446;DHT22;6287;50.984;7.022;2023-04-03T03:28:28;0.60;99.90
12446;DHT22;6287;50.984;7.022;2023-04-03T03:30:57;0.60;99.90
12446;DHT22;6287;50.984;7.022;2023-04-03T03:33:23;2.90;99.90
12446;DHT22;6287;50.984;7.022;2023-04-03T03:35:52;0.60;99.90
12446;DHT22;6287;50.984;7.022;2023-04-03T03:38:20;0.60;99.90
12446;DHT22;6287;50.984;7.022;2023-04-03T03:40:48;0.70;99.90
12446;DHT22;6287;50.984;7.022;2023-04-03T03:45:41;0.70;99.90
12446;DHT22;6287;50.984;7.022;2023-04-03T03:48:06;0.70;99.90
12446;DHT22;6287;50.984;7.022;2023-04-03T03:50:32;0.80;99.90
12446;DHT22;6287;50.984;7.022;2023-04-03T03:53:01;0.80;99.90
12446;DHT22;6287;50.984;7.022;2023-04-03T03:55:26;0.80;99.90
12446;DHT22;6287;50.984;7.022;2023-04-03T03:57:52;0.80;99.90
12446;DHT22;6287;50.984;7.022;2023-04-03T04:00:22;0.80;99.90
12446;DHT22;6287;50.984;7.022;2023-04-03T04:02:48;0.80;99.90
12446;DHT22;6287;50.984;7.022;2023-04-03T04:07:47;0.80;99.90
12446;DHT22;6287;50.984;7.022;2023-04-03T04:10:13;0.90;99.90
12446;DHT22;6287;50.984;7.022;2023-04-03T04:12:39;0.90;99.90
12446;DHT22;6287;50.984;7.022;2023-04-03T04:15:05;0.90;99.90
12446;DHT22;6287;50.984;7.022;2023-04-03T04:17:33;0.90;99.90
12446;DHT22;6287;50.984;7.022;2023-04-03T04:20:05;0.90;99.90
12446;DHT22;6287;50.984;7.022;2023-04-03T04:22:31;1.00;99.90
12446;DHT22;6287;50.984;7.022;2023-04-03T04:24:56;1.00;99.90
12446;DHT22;6287;50.984;7.022;2023-04-03T04:27:24;1.00;99.90
12446;DHT22;6287;50.984;7.022;2023-04-03T04:29:50;1.00;99.90
12446;DHT22;6287;50.984;7.022;2023-04-03T04:34:44;1.00;99.90
12446;DHT22;6287;50.984;7.022;2023-04-03T04:37:09;1.00;99.90
12446;DHT22;6287;50.984;7.022;2023-04-03T04:39:35;1.00;99.90
12446;DHT22;6287;50.984;7.022;2023-04-03T04:42:01;1.10;99.90
12446;DHT22;6287;50.984;7.022;2023-04-03T04:44:28;1.10;99.90
12446;DHT22;6287;50.984;7.022;2023-04-03T04:46:54;1.10;99.90
12446;DHT22;6287;50.984;7.022;2023-04-03T04:49:20;1.10;99.90
12446;DHT22;6287;50.984;7.022;2023-04-03T04:51:45;1.10;99.90
12446;DHT22;6287;50.984;7.022;2023-04-03T04:54:11;1.00;99.90
12446;DHT22;6287;50.984;7.022;2023-04-03T04:56:36;2.90;99.90
12446;DHT22;6287;50.984;7.022;2023-04-03T04:59:02;1.10;99.90
12446;DHT22;6287;50.984;7.022;2023-04-03T05:01:28;1.10;99.90
12446;DHT22;6287;50.984;7.022;2023-04-03T05:03:54;1.10;99.90
12446;DHT22;6287;50.984;7.022;2023-04-03T05:06:20;1.10;99.90
12446;DHT22;6287;50.984;7.022;2023-04-03T05:08:45;1.00;99.90
12446;DHT22;6287;50.984;7.022;2023-04-03T05:11:11;1.10;99.90
12446;DHT22;6287;50.984;7.022;2023-04-03T05:13:39;1.10;99.90
12446;DHT22;6287;50.984;7.022;2023-04-03T05:16:07;1.10;99.90
12446;DHT22;6287;50.984;7.022;2023-04-03T05:18:32;1.10;99.90
12446;DHT22;6287;50.984;7.022;2023-04-03T05:21:00;1.10;99.90
12446;DHT22;6287;50.984;7.022;2023-04-03T05:23:26;1.10;99.90
12446;DHT22;6287;50.984;7.022;2023-04-03T05:25:52;1.10;99.90
12446;DHT22;6287;50.984;7.022;2023-04-03T05:28:18;1.10;99.90
12446;DHT22;6287;50.984;7.022;2023-04-03T05:30:44;4.50;99.90
12446;DHT22;6287;50.984;7.022;2023-04-03T05:33:09;1.20;99.90
12446;DHT22;6287;50.984;7.022;2023-04-03T05:35:37;1.20;99.90
12446;DHT22;6287;50.984;7.022;2023-04-03T05:38:07;1.10;99.90
12446;DHT22;6287;50.984;7.022;2023-04-03T05:40:32;1.20;99.90
12446;DHT22;6287;50.984;7.022;2023-04-03T05:45:26;1.30;99.90
12446;DHT22;6287;50.984;7.022;2023-04-03T05:47:52;1.30;99.90
12446;DHT22;6287;50.984;7.022;2023-04-03T05:50:20;1.30;99.90
12446;DHT22;6287;50.984;7.022;2023-04-03T05:52:49;1.30;99.90
12446;DHT22;6287;50.984;7.022;2023-04-03T05:55:18;1.30;99.90
12446;DHT22;6287;50.984;7.022;2023-04-03T05:57:46;1.40;99.90
12446;DHT22;6287;50.984;7.022;2023-04-03T06:00:15;1.40;99.90
12446;DHT22;6287;50.984;7.022;2023-04-03T06:02:41;1.40;99.90
12446;DHT22;6287;50.984;7.022;2023-04-03T06:05:08;1.50;99.90
12446;DHT22;6287;50.984;7.022;2023-04-03T06:07:34;1.50;99.90
12446;DHT22;6287;50.984;7.022;2023-04-03T06:10:00;2.40;99.90
12446;DHT22;6287;50.984;7.022;2023-04-03T06:12:27;1.60;99.90
12446;DHT22;6287;50.984;7.022;2023-04-03T06:14:57;1.70;99.90
12446;DHT22;6287;50.984;7.022;2023-04-03T06:17:27;1.80;99.90
12446;DHT22;6287;50.984;7.022;2023-04-03T06:19:53;1.80;99.90
12446;DHT22;6287;50.984;7.022;2023-04-03T06:22:18;1.90;99.90
12446;DHT22;6287;50.984;7.022;2023-04-03T06:24:44;2.00;99.90
12446;DHT22;6287;50.984;7.022;2023-04-03T06:27:12;2.10;99.90
12446;DHT22;6287;50.984;7.022;2023-04-03T06:29:37;2.20;99.90
12446;DHT22;6287;50.984;7.022;2023-04-03T06:32:03;2.30;99.90
12446;DHT22;6287;50.984;7.022;2023-04-03T06:34:31;2.40;99.90
12446;DHT22;6287;50.984;7.022;2023-04-03T06:36:57;2.50;99.90
12446;DHT22;6287;50.984;7.022;2023-04-03T06:39:25;2.60;99.90
12446;DHT22;6287;50.984;7.022;2023-04-03T06:41:51;2.70;99.90
12446;DHT22;6287;50.984;7.022;2023-04-03T06:44:17;2.90;99.90
12446;DHT22;6287;50.984;7.022;2023-04-03T06:46:44;3.00;99.90
12446;DHT22;6287;50.984;7.022;2023-04-03T06:49:10;3.10;99.90
12446;DHT22;6287;50.984;7.022;2023-04-03T06:51:39;3.20;99.90
12446;DHT22;6287;50.984;7.022;2023-04-03T06:54:07;3.40;99.90
12446;DHT22;6287;50.984;7.022;2023-04-03T06:56:34;3.40;99.90
12446;DHT22;6287;50.984;7.022;2023-04-03T06:59:00;3.60;99.90
12446;DHT22;6287;50.984;7.022;2023-04-03T07:01:27;3.60;99.90
12446;DHT22;6287;50.984;7.022;2023-04-03T07:03:54;3.70;99.90
12446;DHT22;6287;50.984;7.022;2023-04-03T07:06:23;3.80;99.90
12446;DHT22;6287;50.984;7.022;2023-04-03T07:08:52;4.00;99.90
12446;DHT22;6287;50.984;7.022;2023-04-03T07:11:18;4.10;99.90
12446;DHT22;6287;50.984;7.022;2023-04-03T07:13:43;4.30;99.90
12446;DHT22;6287;50.984;7.022;2023-04-03T07:16:14;4.30;99.90
12446;DHT22;6287;50.984;7.022;2023-04-03T07:18:40;4.50;99.90
12446;DHT22;6287;50.984;7.022;2023-04-03T07:21:07;4.60;99.90
12446;DHT22;6287;50.984;7.022;2023-04-03T07:23:32;4.60;99.90
12446;DHT22;6287;50.984;7.022;2023-04-03T07:25:58;4.70;99.90
12446;DHT22;6287;50.984;7.022;2023-04-03T07:28:24;4.80;99.90
12446;DHT22;6287;50.984;7.022;2023-04-03T07:31:00;4.80;99.90
12446;DHT22;6287;50.984;7.022;2023-04-03T07:33:25;4.90;99.90
12446;DHT22;6287;50.984;7.022;2023-04-03T07:35:51;5.00;99.90
12446;DHT22;6287;50.984;7.022;2023-04-03T07:38:20;5.20;99.90
12446;DHT22;6287;50.984;7.022;2023-04-03T07:40:47;5.30;99.90
12446;DHT22;6287;50.984;7.022;2023-04-03T07:43:14;5.50;99.90
12446;DHT22;6287;50.984;7.022;2023-04-03T07:45:40;5.60;99.90
12446;DHT22;6287;50.984;7.022;2023-04-03T07:48:05;8.90;99.90
12446;DHT22;6287;50.984;7.022;2023-04-03T07:50:31;5.80;99.90
12446;DHT22;6287;50.984;7.022;2023-04-03T07:52:59;5.90;99.90
12446;DHT22;6287;50.984;7.022;2023-04-03T07:55:29;6.10;99.90
12446;DHT22;6287;50.984;7.022;2023-04-03T07:57:59;6.10;99.90
12446;DHT22;6287;50.984;7.022;2023-04-03T08:00:27;6.20;99.90
12446;DHT22;6287;50.984;7.022;2023-04-03T08:02:56;6.30;99.90
12446;DHT22;6287;50.984;7.022;2023-04-03T08:05:21;6.40;99.90
12446;DHT22;6287;50.984;7.022;2023-04-03T08:07:49;6.50;99.90
12446;DHT22;6287;50.984;7.022;2023-04-03T08:10:15;6.60;99.90
12446;DHT22;6287;50.984;7.022;2023-04-03T08:12:41;6.70;99.90
12446;DHT22;6287;50.984;7.022;2023-04-03T08:15:09;6.80;99.90
12446;DHT22;6287;50.984;7.022;2023-04-03T08:17:35;6.90;99.90
12446;DHT22;6287;50.984;7.022;2023-04-03T08:20:06;7.00;99.90
12446;DHT22;6287;50.984;7.022;2023-04-03T08:22:36;7.00;99.90
12446;DHT22;6287;50.984;7.022;2023-04-03T08:25:04;7.20;99.90
12446;DHT22;6287;50.984;7.022;2023-04-03T08:27:29;7.20;99.90
12446;DHT22;6287;50.984;7.022;2023-04-03T08:29:56;7.40;99.90
12446;DHT22;6287;50.984;7.022;2023-04-03T08:32:24;7.40;99.90
12446;DHT22;6287;50.984;7.022;2023-04-03T08:34:54;7.50;99.90
12446;DHT22;6287;50.984;7.022;2023-04-03T08:37:22;7.60;99.40
12446;DHT22;6287;50.984;7.022;2023-04-03T08:39:48;7.70;99.90
12446;DHT22;6287;50.984;7.022;2023-04-03T08:44:52;7.90;98.80
12446;DHT22;6287;50.984;7.022;2023-04-03T08:47:46;8.00;98.30
12446;DHT22;6287;50.984;7.022;2023-04-03T08:50:16;8.00;97.50
12446;DHT22;6287;50.984;7.022;2023-04-03T08:53:02;8.10;97.70
12446;DHT22;6287;50.984;7.022;2023-04-03T08:55:38;8.20;96.80
12446;DHT22;6287;50.984;7.022;2023-04-03T08:58:24;8.30;96.40
12446;DHT22;6287;50.984;7.022;2023-04-03T09:00:58;8.50;97.10
12446;DHT22;6287;50.984;7.022;2023-04-03T09:03:24;8.70;97.00
12446;DHT22;6287;50.984;7.022;2023-04-03T09:05:51;8.90;95.20
12446;DHT22;6287;50.984;7.022;2023-04-03T09:08:29;9.00;94.40
12446;DHT22;6287;50.984;7.022;2023-04-03T09:14:26;9.30;93.80
12446;DHT22;6287;50.984;7.022;2023-04-03T09:17:15;9.50;94.60
12446;DHT22;6287;50.984;7.022;2023-04-03T09:22:47;9.50;94.20
12446;DHT22;6287;50.984;7.022;2023-04-03T09:25:20;9.60;94.10
12446;DHT22;6287;50.984;7.022;2023-04-03T09:27:49;9.70;94.40
12446;DHT22;6287;50.984;7.022;2023-04-03T09:30:18;9.90;93.40
12446;DHT22;6287;50.984;7.022;2023-04-03T09:32:49;10.00;93.70
12446;DHT22;6287;50.984;7.022;2023-04-03T09:35:24;10.10;93.40
12446;DHT22;6287;50.984;7.022;2023-04-03T09:37:58;10.10;92.50
12446;DHT22;6287;50.984;7.022;2023-04-03T09:43:00;10.30;93.10
12446;DHT22;6287;50.984;7.022;2023-04-03T09:50:30;10.30;92.30
12446;DHT22;6287;50.984;7.022;2023-04-03T09:52:56;10.50;92.10
12446;DHT22;6287;50.984;7.022;2023-04-03T09:55:22;10.50;90.90
12446;DHT22;6287;50.984;7.022;2023-04-03T09:58:04;10.60;91.00
12446;DHT22;6287;50.984;7.022;2023-04-03T10:00:37;10.70;92.00
12446;DHT22;6287;50.984;7.022;2023-04-03T10:03:20;10.80;90.60
12446;DHT22;6287;50.984;7.022;2023-04-03T10:05:46;10.90;92.20
12446;DHT22;6287;50.984;7.022;2023-04-03T10:10:47;11.40;91.70
12446;DHT22;6287;50.984;7.022;2023-04-03T10:15:44;11.50;90.40
12446;DHT22;6287;50.984;7.022;2023-04-03T10:24:21;11.40;88.30
12446;DHT22;6287;50.984;7.022;2023-04-03T10:26:59;11.50;84.60
12446;DHT22;6287;50.984;7.022;2023-04-03T10:29:36;11.70;84.80
12446;DHT22;6287;50.984;7.022;2023-04-03T10:43:29;12.30;83.10
12446;DHT22;6287;50.984;7.022;2023-04-03T10:46:04;12.50;79.60
12446;DHT22;6287;50.984;7.022;2023-04-03T10:51:33;13.00;84.20
12446;DHT22;6287;50.984;7.022;2023-04-03T10:54:12;13.20;83.10
12446;DHT22;6287;50.984;7.022;2023-04-03T10:56:44;13.30;78.30
12446;DHT22;6287;50.984;7.022;2023-04-03T11:01:56;13.10;75.90
12446;DHT22;6287;50.984;7.022;2023-04-03T11:04:30;13.20;77.00
12446;DHT22;6287;50.984;7.022;2023-04-03T11:07:10;13.20;73.70
12446;DHT22;6287;50.984;7.022;2023-04-03T11:09:41;13.30;74.40
12446;DHT22;6287;50.984;7.022;2023-04-03T11:12:25;13.20;71.00
12446;DHT22;6287;50.984;7.022;2023-04-03T11:14:52;13.30;73.10
12446;DHT22;6287;50.984;7.022;2023-04-03T11:25:40;13.80;72.50
12446;DHT22;6287;50.984;7.022;2023-04-03T11:28:15;14.00;69.10
12446;DHT22;6287;50.984;7.022;2023-04-03T11:36:22;14.70;70.40
12446;DHT22;6287;50.984;7.022;2023-04-03T11:38:49;14.60;69.70
12446;DHT22;6287;50.984;7.022;2023-04-03T11:41:29;14.50;65.60
12446;DHT22;6287;50.984;7.022;2023-04-03T11:46:59;14.80;67.20
12446;DHT22;6287;50.984;7.022;2023-04-03T12:24:02;15.60;58.00
12446;DHT22;6287;50.984;7.022;2023-04-03T12:29:25;15.70;57.60
12446;DHT22;6287;50.984;7.022;2023-04-03T12:32:57;15.80;52.90
12446;DHT22;6287;50.984;7.022;2023-04-03T12:37:48;16.20;53.60
12446;DHT22;6287;50.984;7.022;2023-04-03T12:48:24;16.00;52.90
12446;DHT22;6287;50.984;7.022;2023-04-03T12:50:53;15.90;48.40
12446;DHT22;6287;50.984;7.022;2023-04-03T12:53:23;15.70;49.10
12446;DHT22;6287;50.984;7.022;2023-04-03T12:55:56;15.60;50.70
12446;DHT22;6287;50.984;7.022;2023-04-03T12:58:27;16.00;50.60
12446;DHT22;6287;50.984;7.022;2023-04-03T13:01:14;16.10;48.20
12446;DHT22;6287;50.984;7.022;2023-04-03T13:03:47;16.20;47.80
12446;DHT22;6287;50.984;7.022;2023-04-03T13:06:27;16.40;48.20
12446;DHT22;6287;50.984;7.022;2023-04-03T13:08:58;16.60;46.70
12446;DHT22;6287;50.984;7.022;2023-04-03T13:11:27;16.80;48.20
12446;DHT22;6287;50.984;7.022;2023-04-03T13:14:03;17.00;47.30
12446;DHT22;6287;50.984;7.022;2023-04-03T13:16:32;17.30;46.30
12446;DHT22;6287;50.984;7.022;2023-04-03T13:18:59;17.60;45.00
12446;DHT22;6287;50.984;7.022;2023-04-03T13:21:30;17.50;45.70
12446;DHT22;6287;50.984;7.022;2023-04-03T13:23:59;17.80;44.20
12446;DHT22;6287;50.984;7.022;2023-04-03T13:26:32;17.60;42.10
12446;DHT22;6287;50.984;7.022;2023-04-03T13:29:05;17.80;43.20
12446;DHT22;6287;50.984;7.022;2023-04-03T13:31:36;17.90;43.10
12446;DHT22;6287;50.984;7.022;2023-04-03T13:34:11;18.20;44.00
12446;DHT22;6287;50.984;7.022;2023-04-03T13:36:55;18.30;44.00
12446;DHT22;6287;50.984;7.022;2023-04-03T13:39:30;18.60;43.40
12446;DHT22;6287;50.984;7.022;2023-04-03T13:41:59;19.10;43.70
12446;DHT22;6287;50.984;7.022;2023-04-03T13:44:39;19.40;42.20
12446;DHT22;6287;50.984;7.022;2023-04-03T13:47:21;19.50;44.40
12446;DHT22;6287;50.984;7.022;2023-04-03T13:52:33;19.90;39.00
12446;DHT22;6287;50.984;7.022;2023-04-03T14:00:39;19.30;40.00
12446;DHT22;6287;50.984;7.022;2023-04-03T14:05:47;19.40;41.70
12446;DHT22;6287;50.984;7.022;2023-04-03T14:08:16;19.70;41.90
12446;DHT22;6287;50.984;7.022;2023-04-03T14:10:42;19.80;38.40
12446;DHT22;6287;50.984;7.022;2023-04-03T14:13:12;19.90;40.80
12446;DHT22;6287;50.984;7.022;2023-04-03T14:15:41;20.00;39.40
12446;DHT22;6287;50.984;7.022;2023-04-03T14:18:16;20.40;41.70
12446;DHT22;6287;50.984;7.022;2023-04-03T14:20:45;20.90;40.20
12446;DHT22;6287;50.984;7.022;2023-04-03T14:23:17;20.80;38.60
12446;DHT22;6287;50.984;7.022;2023-04-03T14:25:43;20.90;39.40
12446;DHT22;6287;50.984;7.022;2023-04-03T14:28:23;20.90;39.50
12446;DHT22;6287;50.984;7.022;2023-04-03T14:30:51;21.00;40.10
12446;DHT22;6287;50.984;7.022;2023-04-03T14:33:21;21.00;37.50
12446;DHT22;6287;50.984;7.022;2023-04-03T14:35:47;20.80;38.90
12446;DHT22;6287;50.984;7.022;2023-04-03T14:38:31;20.80;39.30
12446;DHT22;6287;50.984;7.022;2023-04-03T14:40:57;20.60;39.30
12446;DHT22;6287;50.984;7.022;2023-04-03T14:43:24;20.40;38.20
12446;DHT22;6287;50.984;7.022;2023-04-03T14:45:51;20.20;38.60
12446;DHT22;6287;50.984;7.022;2023-04-03T14:48:25;19.70;37.70
12446;DHT22;6287;50.984;7.022;2023-04-03T14:50:52;19.30;38.60
12446;DHT22;6287;50.984;7.022;2023-04-03T14:53:19;19.00;36.80
12446;DHT22;6287;50.984;7.022;2023-04-03T14:55:49;19.10;38.20
12446;DHT22;6287;50.984;7.022;2023-04-03T14:58:17;19.50;37.70
12446;DHT22;6287;50.984;7.022;2023-04-03T15:00:43;19.90;38.60
12446;DHT22;6287;50.984;7.022;2023-04-03T15:03:17;20.00;39.20
12446;DHT22;6287;50.984;7.022;2023-04-03T15:05:44;20.20;38.20
12446;DHT22;6287;50.984;7.022;2023-04-03T15:10:46;20.20;37.10
12446;DHT22;6287;50.984;7.022;2023-04-03T15:13:12;20.20;36.70
12446;DHT22;6287;50.984;7.022;2023-04-03T15:15:41;20.20;37.20
12446;DHT22;6287;50.984;7.022;2023-04-03T15:18:11;20.60;37.00
12446;DHT22;6287;50.984;7.022;2023-04-03T15:20:41;21.10;40.60
12446;DHT22;6287;50.984;7.022;2023-04-03T15:23:10;21.60;36.80
12446;DHT22;6287;50.984;7.022;2023-04-03T15:25:37;22.00;36.80
12446;DHT22;6287;50.984;7.022;2023-04-03T15:28:05;22.30;37.60
12446;DHT22;6287;50.984;7.022;2023-04-03T15:30:31;22.50;36.00
12446;DHT22;6287;50.984;7.022;2023-04-03T15:32:56;22.70;35.10
12446;DHT22;6287;50.984;7.022;2023-04-03T15:35:25;22.70;35.70
12446;DHT22;6287;50.984;7.022;2023-04-03T15:37:52;22.50;34.30
12446;DHT22;6287;50.984;7.022;2023-04-03T15:40:20;22.20;34.10
12446;DHT22;6287;50.984;7.022;2023-04-03T15:42:47;21.40;33.80
12446;DHT22;6287;50.984;7.022;2023-04-03T15:45:12;21.20;36.60
12446;DHT22;6287;50.984;7.022;2023-04-03T15:47:38;21.40;37.00
12446;DHT22;6287;50.984;7.022;2023-04-03T15:50:06;21.50;34.50
12446;DHT22;6287;50.984;7.022;2023-04-03T15:52:33;21.50;34.70
12446;DHT22;6287;50.984;7.022;2023-04-03T15:55:01;21.60;36.80
12446;DHT22;6287;50.984;7.022;2023-04-03T15:57:29;21.80;34.40
12446;DHT22;6287;50.984;7.022;2023-04-03T15:59:59;21.60;33.70
12446;DHT22;6287;50.984;7.022;2023-04-03T16:02:25;21.20;34.10
12446;DHT22;6287;50.984;7.022;2023-04-03T16:04:54;20.10;34.40
12446;DHT22;6287;50.984;7.022;2023-04-03T16:07:20;19.10;36.50
12446;DHT22;6287;50.984;7.022;2023-04-03T16:09:47;18.70;36.40
12446;DHT22;6287;50.984;7.022;2023-04-03T16:12:13;18.50;36.90
12446;DHT22;6287;50.984;7.022;2023-04-03T16:14:39;18.10;36.60
12446;DHT22;6287;50.984;7.022;2023-04-03T16:17:06;17.30;37.60
12446;DHT22;6287;50.984;7.022;2023-04-03T16:19:34;16.70;39.10
12446;DHT22;6287;50.984;7.022;2023-04-03T16:22:00;16.10;39.80
12446;DHT22;6287;50.984;7.022;2023-04-03T16:24:29;16.00;39.70
12446;DHT22;6287;50.984;7.022;2023-04-03T16:26:55;16.30;41.30
12446;DHT22;6287;50.984;7.022;2023-04-03T16:29:26;16.30;40.00
12446;DHT22;6287;50.984;7.022;2023-04-03T16:31:57;16.40;39.70
12446;DHT22;6287;50.984;7.022;2023-04-03T16:34:23;16.20;41.70
12446;DHT22;6287;50.984;7.022;2023-04-03T16:36:53;15.90;41.10
12446;DHT22;6287;50.984;7.022;2023-04-03T16:41:52;14.40;42.10
12446;DHT22;6287;50.984;7.022;2023-04-03T16:44:18;14.10;43.40
12446;DHT22;6287;50.984;7.022;2023-04-03T16:46:45;14.10;44.20
12446;DHT22;6287;50.984;7.022;2023-04-03T16:49:10;13.70;43.10
12446;DHT22;6287;50.984;7.022;2023-04-03T16:51:37;13.50;44.20
12446;DHT22;6287;50.984;7.022;2023-04-03T16:54:03;13.20;44.30
12446;DHT22;6287;50.984;7.022;2023-04-03T16:56:30;13.00;45.50
12446;DHT22;6287;50.984;7.022;2023-04-03T16:58:57;12.60;44.80
12446;DHT22;6287;50.984;7.022;2023-04-03T17:01:25;12.60;45.60
12446;DHT22;6287;50.984;7.022;2023-04-03T17:03:52;12.40;45.60
12446;DHT22;6287;50.984;7.022;2023-04-03T17:06:20;12.40;46.20
12446;DHT22;6287;50.984;7.022;2023-04-03T17:08:48;12.30;45.80
12446;DHT22;6287;50.984;7.022;2023-04-03T17:11:17;12.20;46.10
12446;DHT22;6287;50.984;7.022;2023-04-03T17:13:43;12.00;45.90
12446;DHT22;6287;50.984;7.022;2023-04-03T17:16:12;11.80;45.90
12446;DHT22;6287;50.984;7.022;2023-04-03T17:18:41;11.70;46.70
12446;DHT22;6287;50.984;7.022;2023-04-03T17:21:10;11.60;47.40
12446;DHT22;6287;50.984;7.022;2023-04-03T17:23:37;11.70;47.80
12446;DHT22;6287;50.984;7.022;2023-04-03T17:26:04;11.50;46.30
12446;DHT22;6287;50.984;7.022;2023-04-03T17:28:37;11.40;47.00
12446;DHT22;6287;50.984;7.022;2023-04-03T17:31:06;11.40;47.60
12446;DHT22;6287;50.984;7.022;2023-04-03T17:33:32;11.30;48.10
12446;DHT22;6287;50.984;7.022;2023-04-03T17:35:59;11.10;48.40
12446;DHT22;6287;50.984;7.022;2023-04-03T17:38:28;10.50;49.20
12446;DHT22;6287;50.984;7.022;2023-04-03T17:41:02;10.50;49.60
12446;DHT22;6287;50.984;7.022;2023-04-03T17:43:32;10.20;49.20
12446;DHT22;6287;50.984;7.022;2023-04-03T17:46:05;10.00;50.30
12446;DHT22;6287;50.984;7.022;2023-04-03T17:48:32;9.70;51.60
12446;DHT22;6287;50.984;7.022;2023-04-03T17:51:11;9.60;52.90
12446;DHT22;6287;50.984;7.022;2023-04-03T17:53:40;9.40;53.10
12446;DHT22;6287;50.984;7.022;2023-04-03T17:56:08;9.20;54.40
12446;DHT22;6287;50.984;7.022;2023-04-03T17:58:36;9.00;54.70
12446;DHT22;6287;50.984;7.022;2023-04-03T18:03:36;8.80;56.70
12446;DHT22;6287;50.984;7.022;2023-04-03T18:06:12;8.70;56.50
12446;DHT22;6287;50.984;7.022;2023-04-03T18:08:52;8.60;56.20
12446;DHT22;6287;50.984;7.022;2023-04-03T18:11:19;8.50;57.20
12446;DHT22;6287;50.984;7.022;2023-04-03T18:13:51;8.30;57.30
12446;DHT22;6287;50.984;7.022;2023-04-03T18:16:19;8.20;57.50
12446;DHT22;6287;50.984;7.022;2023-04-03T18:18:44;8.10;58.00
12446;DHT22;6287;50.984;7.022;2023-04-03T18:21:13;8.00;58.30
12446;DHT22;6287;50.984;7.022;2023-04-03T18:23:51;7.90;58.30
12446;DHT22;6287;50.984;7.022;2023-04-03T18:26:17;7.90;58.60
12446;DHT22;6287;50.984;7.022;2023-04-03T18:28:48;7.80;58.50
12446;DHT22;6287;50.984;7.022;2023-04-03T18:31:19;7.80;58.70
12446;DHT22;6287;50.984;7.022;2023-04-03T18:33:47;7.60;59.10
12446;DHT22;6287;50.984;7.022;2023-04-03T18:36:13;7.50;59.50
12446;DHT22;6287;50.984;7.022;2023-04-03T18:38:43;7.40;60.00
12446;DHT22;6287;50.984;7.022;2023-04-03T18:41:11;7.40;60.20
12446;DHT22;6287;50.984;7.022;2023-04-03T18:43:40;7.30;60.20
12446;DHT22;6287;50.984;7.022;2023-04-03T18:46:08;9.60;62.10
12446;DHT22;6287;50.984;7.022;2023-04-03T18:48:34;7.20;61.10
12446;DHT22;6287;50.984;7.022;2023-04-03T18:51:01;7.10;61.20
12446;DHT22;6287;50.984;7.022;2023-04-03T18:53:30;7.00;61.30